KF6RAL-6 Weather Reports


Display with metric or nautical units.
time (UTC)temp
F
wind
direction
speed
MPH
gust
MPH
rain 1hr
in
rain 24hr
in
rain mn
in
humidity
%
barometer
mb
20170323140632 0 324 7.0 17.0 0.06 4.84 1.54 1006.0
20170323135931 0 303 6.0 17.0 0.04 4.84 1.54 1005.8
20170323135231 0 317 8.0 17.0 0.04 4.84 1.54 1005.8
20170323134528 0 208 3.0 15.0 0.02 4.84 1.53 1005.7
20170323133126 0 208 6.0 14.0 0.01 4.84 1.53 1005.8
20170323132425 0 235 6.0 11.0 0.01 4.84 1.53 1005.8
20170323131724 0 248 6.0 11.0 0.01 4.84 1.53 1005.5
20170323131023 0 237 7.0 13.0 0.13 4.84 1.53 1005.6
20170323130737 0 243 7.0 12.0 0.13 4.84 1.53 1005.6
20170323130322 0 243 7.0 12.0 0.13 4.84 1.53 1005.6
20170323125621 0 232 6.0 12.0 0.13 4.84 1.53 1005.5
20170323124920 0 225 5.0 10.0 0.13 4.84 1.53 1005.4
20170323124219 0 213 3.0 14.0 0.13 4.84 1.53 1005.2
20170323123518 0 215 7.0 13.0 0.14 4.84 1.53 1005.2
20170323122817 0 216 7.0 13.0 0.13 4.84 1.53 1005.1
20170323122116 0 224 8.0 18.0 0.13 4.84 1.53 1005.2
20170323121415 0 207 9.0 21.0 0.06 4.83 1.52 1005.1
20170323120714 0 220 9.0 17.0 0.02 4.83 1.52 1005.2
20170323120013 0 238 9.0 13.0 0.02 4.83 1.52 1005.3
20170323115107 0 223 9.0 17.0 0.07 4.83 1.52 1005.3
20170323114611 0 223 9.0 17.0 0.07 4.83 1.52 1005.3
20170323114508 0 220 10.0 21.0 0.07 4.83 1.52 1005.1
20170323113910 0 220 10.0 21.0 0.07 4.83 1.52 1005.1
20170323113209 0 237 13.0 21.0 0.07 4.82 1.52 1005.1
20170323112508 0 246 10.0 18.0 0.07 4.82 1.52 1005.1
20170323111809 0 236 7.0 19.0 0.07 4.82 1.52 1005.0
20170323111154 0 233 16.0 23.0 0.07 4.82 1.52 1004.6
20170323111106 0 234 15.0 22.0 0.07 4.82 1.52 1004.8
20170323110405 0 233 16.0 23.0 0.07 4.82 1.52 1004.6
20170323105704 0 209 12.0 23.0 0.07 4.82 1.52 1004.6
20170323105003 0 223 9.0 18.0 0.02 4.82 1.51 1004.8
20170323104302 0 229 13.0 22.0 0.02 4.82 1.51 1004.8
20170323103932 0 227 18.0 26.0 0.01 4.82 1.51 1004.8
20170323103601 0 227 18.0 26.0 0.01 4.82 1.51 1004.8
20170323102900 0 231 19.0 26.0 0.02 4.82 1.51 1004.6
20170323102159 0 237 14.0 18.0 0.02 4.82 1.51 1004.7
20170323102014 0 0 0.0 0.0 0.02 4.82 1.51 1004.7
20170323101458 0 0 0.0 0.0 0.02 4.82 1.51 1004.7
20170323100757 0 0 0.0 6.0 0.02 4.82 1.51 1004.7
20170323100056 0 0 0.0 12.0 0.01 4.82 1.51 1004.7
20170323095355 0 212 4.0 12.0 0.01 4.82 1.51 1004.8
20170323094654 0 205 5.0 12.0 0.02 4.82 1.51 1004.8
20170323093953 0 209 5.0 13.0 0.02 4.82 1.51 1004.9
20170323093252 0 210 7.0 13.0 0.02 4.82 1.51 1004.9
20170323092550 0 222 6.0 14.0 0.02 4.82 1.51 1005.0
20170323091850 0 235 11.0 14.0 0.02 4.82 1.51 1005.0
20170323091148 0 219 6.0 14.0 0.03 4.82 1.51 1005.1
20170323090447 0 227 7.0 18.0 0.03 4.82 1.51 1005.1
20170323085746 0 235 13.0 22.0 0.03 4.82 1.51 1005.2
20170323085333 0 107 6.0 13.0 0.07 4.81 1.51 1005.3
20170323085047 0 107 5.0 10.0 0.02 4.81 1.51 1005.3
20170323084344 0 107 6.0 13.0 0.07 4.81 1.51 1005.3
20170323082943 0 108 11.0 14.0 2.10 4.81 1.51 1005.1
20170323082241 0 110 10.0 13.0 4.00 4.81 1.51 1005.3
20170323081540 0 110 4.0 11.0 5.90 4.81 1.51 1005.5
20170323080839 0 0 0.0 9.0 6.72 4.81 1.51 1005.5
20170323080138 0 98 4.0 9.0 8.60 4.81 1.51 1005.4
20170323075437 0 0 0.0 13.0 1.04 4.81 1.51 1005.3
20170323074736 0 0 0.0 0.0 1.22 4.81 1.50 1005.5
20170323074035 0 0 0.0 0.0 1.31 4.81 1.50 1005.6
20170323073334 0 0 0.0 7.0 1.38 4.69 1.38 1005.5
20170323072633 0 190 1.0 16.0 1.35 4.51 1.20 1005.3
20170323071932 0 348 10.0 17.0 1.34 4.32 1.01 1005.0
20170323071231 0 350 11.0 19.0 1.33 4.22 9.21 1004.8
20170323070532 0 336 10.0 20.0 1.34 4.05 7.43 1004.8
20170323065829 0 329 11.0 20.0 1.35 3.86 5.57 1004.8
20170323065128 0 324 12.0 17.0 1.28 3.67 3.67 1004.8
20170323064427 0 325 8.0 19.0 1.22 3.59 2.86 1004.7
20170323063726 0 329 9.0 24.0 1.09 3.40 0.98 1004.5
20170323063025 0 324 10.0 21.0 9.51 3.24 3.24 1004.5
20170323062324 0 320 13.0 21.0 9.17 3.06 3.06 1004.7
20170323061623 0 318 9.0 20.0 8.28 2.97 2.97 1004.7
20170323060923 0 304 12.0 21.0 8.04 2.79 2.79 1004.8
20170323060221 0 300 14.0 23.0 6.14 2.60 2.60 1005.2
20170323055520 0 300 15.0 24.0 5.13 2.43 2.43 1004.9
20170323054819 0 296 15.0 24.0 5.07 2.39 2.39 1004.9
20170323054118 0 240 11.0 16.0 5.88 2.35 2.35 1005.1
20170323053417 0 230 13.0 16.0 7.13 2.29 2.28 1005.1
20170323052716 0 238 6.0 13.0 7.99 2.19 2.19 1005.3
20170323052016 0 0 0.0 0.0 8.48 2.15 2.15 1005.2
20170323051314 0 0 0.0 0.0 9.40 2.05 2.05 1005.4
20170323050613 0 0 0.0 0.0 1.05 1.99 1.99 1005.3
20170323045912 0 0 0.0 0.0 1.24 2.01 1.98 1005.3
20170323045211 0 0 0.0 0.0 1.22 2.03 1.88 1005.3
20170323044510 0 0 0.0 0.0 1.20 2.00 1.86 1005.3
20170323043809 0 0 0.0 0.0 1.01 1.90 1.67 1005.3
20170323043108 0 0 0.0 0.0 8.31 1.88 1.49 1005.3
20170323042407 0 0 0.0 0.0 6.41 1.75 1.30 1005.4
20170323041706 0 0 0.0 0.0 5.46 1.69 1.20 1005.6
20170323041130 0 0 0.0 0.0 1.77 1.51 8.38 1005.3
20170323041005 0 0 0.0 0.0 3.67 1.66 1.02 1005.4
20170323040304 0 0 0.0 0.0 1.77 1.51 8.38 1005.3
20170323035603 0 0 0.0 0.0 0.00 1.41 6.61 1005.5
20170323034902 0 0 0.0 0.0 0.00 1.44 6.61 1005.6
20170323034201 0 0 0.0 0.0 0.00 1.48 6.61 1005.6
20170323033904 0 0 0.0 0.0 0.00 1.57 6.61 1005.7
20170323033500 0 0 0.0 0.0 0.00 1.51 6.61 1005.7
20170323032759 0 0 0.0 0.0 0.00 1.57 6.61 1005.7
20170323032058 0 0 0.0 0.0 0.00 1.59 6.61 1005.6
20170323031357 0 0 0.0 0.0 0.00 1.69 6.61 1005.5
20170323030656 0 0 0.0 0.0 0.00 1.69 6.61 1005.4
20170323030054 0 0 0.0 0.0 0.00 1.73 6.61 1005.6
20170323025955 0 0 0.0 0.0 0.00 1.73 6.61 1005.6
20170323025254 0 0 0.0 0.0 0.00 1.74 6.61 1005.5
20170323024553 0 0 0.0 0.0 0.00 1.76 6.61 1005.5
20170323024030 0 0 0.0 0.0 0.00 1.79 6.61 1005.6
20170323023852 0 0 0.0 0.0 0.00 1.79 6.61 1005.6
20170323023713 0 0 0.0 0.0 0.00 1.81 6.61 1005.7
20170323023151 0 0 0.0 0.0 0.00 1.81 6.61 1005.7
20170323022644 0 0 0.0 0.0 0.00 1.81 6.61 1005.6
20170323022450 0 0 0.0 0.0 0.00 1.81 6.61 1005.6
20170323022246 0 0 0.0 0.0 0.00 1.82 6.61 1005.7
20170323021749 0 0 0.0 0.0 0.00 1.82 6.61 1005.7
20170323021609 0 0 0.0 0.0 0.00 1.83 6.61 1005.6
20170323021048 0 0 0.0 0.0 0.00 1.83 6.61 1005.6
20170323020804 0 0 0.0 0.0 0.00 1.83 6.61 1005.8
20170323020347 0 0 0.0 0.0 0.00 1.83 6.61 1005.8
20170323015646 0 0 0.0 0.0 0.00 1.85 6.61 1005.9
20170323015534 0 0 0.0 0.0 0.00 1.85 6.61 1006.1
20170323014946 0 0 0.0 0.0 0.00 1.85 6.61 1006.1
20170323014643 0 0 0.0 0.0 0.00 1.86 6.61 1006.0
20170323014244 0 0 0.0 0.0 0.00 1.86 6.61 1006.0
20170323013903 0 0 0.0 0.0 0.00 1.86 6.61 1006.0
20170323013543 0 0 0.0 0.0 0.00 1.86 6.61 1006.0
20170323013343 0 0 0.0 0.0 0.00 1.86 6.61 1006.0
20170323012842 0 0 0.0 0.0 0.00 1.86 6.61 1006.0
20170323012611 0 0 0.0 0.0 0.00 1.86 6.61 1006.0
20170323012141 0 0 0.0 0.0 0.00 1.86 6.61 1006.0
20170323010739 0 119 2.0 5.0 0.00 1.86 6.61 1005.9
20170323010611 0 115 1.0 6.0 0.00 1.86 6.61 1005.9
20170323010038 0 115 1.0 6.0 0.00 1.86 6.61 1005.9
20170323005338 0 108 2.0 7.0 0.00 1.90 6.61 1006.2
20170323004636 0 99 2.0 10.0 0.00 1.91 6.61 1006.0
20170323004240 0 81 5.0 12.0 0.00 1.91 6.61 1006.1
20170323003935 0 81 5.0 12.0 0.00 1.91 6.61 1006.1
20170323003741 0 79 6.0 12.0 0.00 1.91 6.61 1006.1
20170323003234 0 79 6.0 12.0 0.00 1.91 6.61 1006.1
20170323002823 0 79 6.0 9.0 0.00 1.91 6.61 1006.2
20170323002533 0 79 6.0 9.0 0.00 1.91 6.61 1006.2
20170323002441 0 97 3.0 10.0 0.00 1.92 6.61 1006.5
20170323001832 0 97 3.0 10.0 0.00 1.92 6.61 1006.5
20170323001713 0 97 4.0 11.0 0.00 1.94 6.61 1006.5
20170323001131 0 97 4.0 11.0 0.00 1.94 6.61 1006.5
20170323000314 0 0 0.0 0.0 0.00 1.95 6.61 1006.8
20170322235729 0 0 0.0 0.0 0.00 1.95 6.61 1006.8
20170322235441 0 0 0.0 9.0 0.00 1.96 6.61 1006.9
20170322235028 0 0 0.0 9.0 0.00 1.96 6.61 1006.9
20170322234903 0 287 1.0 9.0 0.00 1.96 6.61 1006.8
20170322234327 0 287 1.0 9.0 0.00 1.96 6.61 1006.8
20170322233931 0 0 0.0 0.0 0.14 1.97 6.61 1006.5
20170322233626 0 0 0.0 0.0 0.14 1.97 6.61 1006.5
20170322233321 0 0 0.0 0.0 2.04 1.98 6.61 1006.5
20170322232925 0 0 0.0 0.0 2.04 1.98 6.61 1006.5
20170322232534 0 0 0.0 10.0 3.80 1.98 6.61 1006.5
20170322232224 0 0 0.0 10.0 3.80 1.98 6.61 1006.5
20170322231833 0 0 0.0 0.0 4.83 2.00 6.61 1006.4
20170322231523 0 0 0.0 0.0 4.83 2.00 6.61 1006.4
20170322230644 0 0 0.0 11.0 4.83 2.01 6.61 1006.7
20170322230121 0 0 0.0 11.0 4.83 2.01 6.61 1006.7
20170322225421 0 232 6.0 15.0 4.83 2.01 6.61 1007.1
20170322224903 0 247 9.0 20.0 4.84 2.02 6.61 1007.3
20170322224719 0 247 9.0 20.0 4.84 2.02 6.61 1007.3
20170322224441 0 245 12.0 20.0 4.84 2.02 6.61 1007.2
20170322224017 0 245 12.0 20.0 4.84 2.02 6.61 1007.2
20170322223736 0 253 9.0 18.0 3.75 1.91 5.52 1007.5
20170322223316 0 253 9.0 18.0 3.75 1.91 5.52 1007.5
20170322222930 0 268 14.0 23.0 1.84 1.73 3.61 1007.6
20170322222615 0 268 14.0 23.0 1.84 1.73 3.61 1007.6
20170322221914 0 268 15.0 23.0 0.13 1.56 1.89 1007.4
20170322221214 0 264 12.0 23.0 0.02 1.55 1.78 1007.7
20170322220512 0 258 12.0 20.0 0.02 1.55 1.78 1007.4
20170322215811 0 247 14.0 20.0 0.02 1.55 1.78 1007.1
20170322215110 0 248 13.0 19.0 0.01 1.55 1.77 1007.3
20170322214409 0 263 13.0 16.0 0.01 1.55 1.77 1007.3
20170322213942 0 262 11.0 15.0 0.01 1.55 1.77 1007.4
20170322213710 0 262 11.0 15.0 0.01 1.55 1.77 1007.4
20170322213534 0 257 10.0 14.0 1.59 1.56 1.77 1007.7
20170322213008 0 257 10.0 14.0 1.59 1.56 1.77 1007.7
20170322212836 0 226 8.0 17.0 1.59 1.57 1.77 1007.7
20170322212307 0 226 8.0 17.0 1.59 1.57 1.77 1007.7
20170322211611 0 273 14.0 21.0 1.58 1.57 1.76 1007.6
20170322211210 0 268 14.0 21.0 1.58 1.57 1.76 1007.6
20170322210905 0 268 14.0 21.0 1.58 1.57 1.76 1007.6
20170322210610 0 237 16.0 21.0 1.60 1.57 1.76 1008.0
20170322210203 0 237 16.0 21.0 1.60 1.57 1.76 1008.0
20170322205714 0 244 13.0 24.0 1.64 1.59 1.76 1007.6
20170322205504 0 244 13.0 24.0 1.64 1.59 1.76 1007.6
20170322205432 0 229 18.0 24.0 1.67 1.60 1.76 1008.0
20170322204802 0 229 18.0 24.0 1.67 1.60 1.76 1008.0
20170322204534 0 239 13.0 21.0 1.75 1.60 1.76 1007.9
20170322204100 0 239 13.0 21.0 1.75 1.60 1.76 1007.9
20170322203931 0 272 16.0 24.0 0.97 1.54 0.98 1008.2
20170322203359 0 272 16.0 24.0 0.97 1.54 0.98 1008.2
20170322202659 0 280 16.0 21.0 0.17 1.47 0.18 1008.6
20170322202441 0 277 11.0 18.0 0.17 1.48 0.18 1008.2
20170322201957 0 277 11.0 18.0 0.17 1.48 0.18 1008.2
20170322201737 0 248 9.0 16.0 0.17 1.48 0.18 1008.1
20170322201256 0 248 9.0 16.0 0.17 1.48 0.18 1008.1
20170322201014 0 227 10.0 19.0 0.16 1.48 0.17 1008.1
20170322200558 0 209 12.0 27.0 0.16 1.49 0.16 1008.2
20170322200555 0 227 10.0 19.0 0.16 1.48 0.17 1008.1
20170322195854 0 209 12.0 27.0 0.16 1.49 0.16 1008.2
20170322195609 0 207 11.0 29.0 0.10 1.50 0.10 1008.7
20170322195153 0 207 11.0 29.0 0.10 1.50 0.10 1008.7
20170322195120 0 217 18.0 29.0 0.09 1.50 0.09 1009.5
20170322194452 0 217 18.0 29.0 0.09 1.50 0.09 1009.5
20170322194153 0 0 0.0 0.0 0.01 1.49 0.01 1009.7
20170322193751 0 0 0.0 0.0 0.01 1.49 0.01 1009.7
20170322193534 0 0 0.0 0.0 0.01 1.50 0.01 1009.8
20170322193050 0 0 0.0 0.0 0.01 1.50 0.01 1009.8
20170322192659 0 0 0.0 0.0 0.01 1.50 0.01 1009.8
20170322192349 0 0 0.0 0.0 0.01 1.50 0.01 1009.8
20170322192109 0 0 0.0 0.0 0.01 1.50 0.01 1009.4
20170322191648 0 0 0.0 0.0 0.01 1.50 0.01 1009.4
20170322191534 0 0 0.0 0.0 0.01 1.53 0.01 1009.6
20170322190947 0 0 0.0 0.0 0.01 1.53 0.01 1009.6
20170322190246 0 0 0.0 8.0 0.00 1.53 0.00 1009.6
20170322185545 0 0 0.0 0.0 0.00 1.53 0.00 1009.8
20170322184844 0 0 0.0 0.0 0.00 1.55 0.00 1009.9
20170322184143 0 0 0.0 0.0 0.00 1.56 0.00 1009.9
20170322183442 0 0 0.0 0.0 0.00 1.56 0.00 1009.9
20170322182741 0 0 0.0 0.0 0.00 1.56 0.00 1009.8
20170322182041 0 0 0.0 0.0 0.00 1.56 0.00 1009.7
20170322181339 0 0 0.0 0.0 0.00 1.56 0.00 1009.8
20170322180638 0 0 0.0 0.0 0.00 1.56 0.00 1010.0
20170322175937 0 0 0.0 0.0 0.00 1.56 0.00 1010.1
20170322175239 0 0 0.0 0.0 0.00 1.56 0.00 1010.2
20170322174535 0 0 0.0 0.0 0.00 1.56 0.00 1010.3
20170322173834 0 0 0.0 0.0 0.00 1.56 0.00 1010.1
20170322173133 0 0 0.0 0.0 0.00 1.56 0.00 1010.3
20170322172432 0 0 0.0 0.0 0.00 1.56 0.00 1010.2
20170322171732 0 0 0.0 0.0 0.00 1.56 0.00 1010.1
20170322171030 0 0 0.0 0.0 0.00 1.56 0.00 1010.4
20170322170329 0 0 0.0 0.0 0.00 1.56 0.00 1010.4
20170322165628 0 0 0.0 0.0 0.00 1.56 0.00 1010.4
20170322164927 0 0 0.0 0.0 0.00 1.56 0.00 1010.5
20170322164226 0 0 0.0 0.0 0.00 1.56 0.00 1010.5
20170322163736 0 0 0.0 0.0 0.00 1.56 0.00 1010.5
20170322163525 0 0 0.0 0.0 0.00 1.56 0.00 1010.5
20170322163207 0 0 0.0 0.0 0.00 1.56 0.00 1010.5
20170322162824 0 0 0.0 0.0 0.00 1.56 0.00 1010.5
20170322162123 0 0 0.0 0.0 0.00 1.56 0.00 1010.6
20170322161422 0 0 0.0 0.0 0.00 1.56 0.00 1010.8
20170322160724 0 0 0.0 0.0 0.00 1.56 0.00 1010.6
20170322160020 0 0 0.0 0.0 0.00 1.56 0.00 1010.6
20170322155319 0 0 0.0 0.0 0.00 1.56 0.00 1010.7
20170322154618 0 0 0.0 9.0 0.00 1.57 0.00 1010.5
20170322153917 0 0 0.0 0.0 0.00 1.57 0.00 1010.5
20170322153216 0 0 0.0 0.0 0.00 1.57 0.00 1010.4
20170322152515 0 0 0.0 0.0 0.00 1.57 0.00 1010.3
20170322151814 0 0 0.0 0.0 0.00 1.57 0.00 1010.3
20170322151113 0 0 0.0 0.0 0.00 1.57 0.00 1010.1
20170322150412 0 0 0.0 0.0 0.00 1.57 0.00 1010.1
20170322145711 0 0 0.0 0.0 0.00 1.57 0.00 1010.1
20170322145010 0 0 0.0 0.0 0.00 1.57 0.00 1009.9
20170322144309 0 0 0.0 0.0 0.00 1.57 0.00 1009.9
20170322143608 0 0 0.0 0.0 0.00 1.57 0.00 1009.9
20170322142907 0 0 0.0 0.0 0.00 1.57 0.00 1009.9
20170322142206 0 0 0.0 0.0 0.00 1.57 0.00 1009.8
20170322141506 0 0 0.0 0.0 0.00 1.57 0.00 1009.8